CW2931 Weather Reports


Display with metric or nautical units.
time (UTC)temp
F
wind
direction
speed
MPH
gust
MPH
rain 1hr
in
rain 24hr
in
rain mn
in
humidity
%
barometer
mb
20180225232113 43 246 5.0 18.0 0.00 0.13 0.10 62 1015.2
20180225231112 43 257 9.0 18.0 0.00 0.13 0.10 62 1015.0
20180225230120 44 257 7.0 16.0 0.01 0.13 0.10 62 1014.9
20180225225112 44 263 8.0 17.0 0.01 0.14 0.10 62 1014.8
20180225224113 44 242 6.0 14.0 0.01 0.14 0.10 62 1014.7
20180225223113 44 243 9.0 20.0 0.01 0.14 0.10 61 1014.4
20180225222112 45 251 10.0 20.0 0.01 0.14 0.10 59 1013.9
20180225221112 45 277 6.0 17.0 0.01 0.14 0.10 60 1013.7
20180225220121 45 241 10.0 16.0 0.00 0.13 0.09 59 1013.3
20180225215112 45 219 10.0 22.0 0.00 0.13 0.09 58 1013.4
20180225214112 45 217 9.0 24.0 0.00 0.13 0.09 58 1013.1
20180225213112 45 202 8.0 20.0 0.00 0.13 0.09 61 1013.1
20180225212112 45 227 11.0 22.0 0.00 0.14 0.09 60 1012.9
20180225211112 46 271 9.0 20.0 0.00 0.14 0.09 59 1012.6
20180225210121 46 213 9.0 21.0 0.00 0.14 0.09 58 1012.7
20180225205112 46 241 9.0 21.0 0.00 0.14 0.09 59 1012.5
20180225204112 45 268 9.0 20.0 0.01 0.14 0.09 61 1012.7
20180225203112 45 242 10.0 20.0 0.01 0.14 0.09 60 1012.7
20180225202112 45 242 10.0 21.0 0.01 0.14 0.09 60 1012.7
20180225201112 45 223 13.0 22.0 0.01 0.14 0.09 60 1012.6
20180225200121 45 248 10.0 22.0 0.01 0.14 0.09 60 1012.6
20180225195113 45 237 11.0 22.0 0.01 0.15 0.09 61 1012.6
20180225194112 45 233 10.0 20.0 0.00 0.14 0.08 62 1012.4
20180225193112 45 271 12.0 22.0 0.00 0.14 0.08 62 1012.3
20180225192112 45 260 9.0 21.0 0.00 0.14 0.08 63 1012.5
20180225191112 45 227 12.0 22.0 0.01 0.14 0.08 63 1012.4
20180225190120 45 232 12.0 21.0 0.01 0.14 0.08 64 1012.3
20180225185112 45 233 13.0 25.0 0.01 0.14 0.08 62 1012.3
20180225184112 45 249 10.0 26.0 0.01 0.15 0.08 63 1012.1
20180225183113 44 235 10.0 23.0 0.01 0.15 0.08 63 1012.1
20180225182112 44 285 10.0 23.0 0.01 0.15 0.08 64 1012.1
20180225181112 44 222 13.0 24.0 0.00 0.14 0.07 64 1011.7
20180225180120 44 188 9.0 22.0 0.00 0.14 0.07 65 1011.6
20180225175113 44 242 7.0 22.0 0.00 0.14 0.07 65 1011.6
20180225174113 44 230 9.0 22.0 0.00 0.14 0.07 66 1011.4
20180225173113 44 221 9.0 21.0 0.00 0.14 0.07 68 1011.3
20180225172112 44 233 9.0 22.0 0.00 0.14 0.07 67 1011.3
20180225171113 44 245 12.0 25.0 0.01 0.14 0.07 66 1011.1
20180225170121 44 245 12.0 25.0 0.01 0.15 0.07 66 1011.0
20180225165112 44 255 9.0 24.0 0.01 0.15 0.07 66 1011.0
20180225164112 44 247 6.0 20.0 0.01 0.15 0.07 68 1010.9
20180225163112 43 238 12.0 23.0 0.01 0.15 0.07 67 1010.7
20180225162112 43 260 11.0 25.0 0.01 0.15 0.07 69 1010.8
20180225161112 43 225 12.0 28.0 0.00 0.14 0.06 71 1010.5
20180225160121 44 248 7.0 22.0 0.00 0.15 0.06 72 1010.1
20180225155112 44 217 11.0 25.0 0.00 0.15 0.06 70 1009.8
20180225154112 44 237 7.0 25.0 0.01 0.15 0.06 70 1009.8
20180225153112 43 233 12.0 28.0 0.01 0.15 0.06 71 1009.6
20180225152113 42 267 14.0 29.0 0.01 0.15 0.06 72 1009.5
20180225151113 42 221 10.0 21.0 0.01 0.15 0.06 74 1009.5
20180225150121 43 271 6.0 18.0 0.01 0.15 0.06 74 1009.0
20180225145114 43 257 7.0 22.0 0.01 0.15 0.06 75 1008.5
20180225144112 43 226 11.0 24.0 0.00 0.14 0.05 75 1008.4
20180225143112 43 214 10.0 18.0 0.00 0.15 0.05 76 1007.9
20180225142112 43 232 12.0 22.0 0.00 0.15 0.05 79 1007.6
20180225141113 43 247 7.0 14.0 0.00 0.15 0.05 83 1007.4
20180225140121 43 216 7.0 18.0 0.00 0.15 0.05 82 1007.3
20180225135112 43 267 6.0 12.0 0.00 0.15 0.05 82 1006.9
20180225134113 43 264 8.0 17.0 0.01 0.15 0.05 82 1006.8
20180225133112 43 298 9.0 20.0 0.01 0.15 0.05 81 1006.3
20180225132112 44 247 5.0 15.0 0.01 0.16 0.05 81 1006.2
20180225131112 45 269 3.0 18.0 0.01 0.16 0.05 81 1006.0
20180225130121 45 265 7.0 16.0 0.01 0.16 0.05 81 1005.3
20180225125112 46 259 6.0 16.0 0.01 0.16 0.05 83 1004.8
20180225124113 47 269 9.0 20.0 0.00 0.15 0.04 83 1004.4
20180225123112 48 261 7.0 18.0 0.00 0.15 0.04 86 1003.9
20180225122113 48 245 8.0 20.0 0.01 0.15 0.04 88 1003.4
20180225121112 49 241 9.0 20.0 0.01 0.15 0.04 90 1003.0
20180225120120 48 263 14.0 29.0 0.01 0.15 0.04 93 1002.4
20180225115113 48 232 10.0 21.0 0.01 0.15 0.04 94 1001.9
20180225114113 49 218 10.0 22.0 0.01 0.16 0.04 95 1001.3
20180225113112 49 221 9.0 23.0 0.01 0.16 0.04 96 1000.9
20180225112113 49 235 7.0 18.0 0.00 0.15 0.03 97 1000.5
20180225111113 49 225 11.0 20.0 0.00 0.15 0.03 97 1000.3
20180225110120 48 252 6.0 12.0 0.00 0.15 0.03 97 1000.2
20180225105112 48 217 7.0 14.0 0.00 0.15 0.03 97 1000.1
20180225104113 48 235 6.0 12.0 0.01 0.16 0.03 97 999.8
20180225103113 47 196 3.0 12.0 0.01 0.16 0.03 97 999.6
20180225102113 46 258 4.0 9.0 0.01 0.16 0.03 96 999.4
20180225101113 46 173 3.0 13.0 0.01 0.16 0.03 96 998.8
20180225100120 46 163 3.0 7.0 0.01 0.16 0.03 97 998.7
20180225095113 45 224 1.0 6.0 0.01 0.16 0.03 97 998.8
20180225094113 44 169 1.0 3.0 0.00 0.15 0.02 96 998.8
20180225093113 44 143 2.0 7.0 0.00 0.15 0.02 96 998.7
20180225092112 43 186 1.0 3.0 0.00 0.15 0.02 96 998.8
20180225091112 43 144 1.0 3.0 0.01 0.16 0.02 96 998.8
20180225090121 43 136 2.0 3.0 0.01 0.16 0.02 96 999.0
20180225085113 42 125 3.0 5.0 0.01 0.16 0.02 96 999.3
20180225084112 41 126 1.0 3.0 0.01 0.16 0.02 96 999.8
20180225083114 41 96 1.0 5.0 0.01 0.16 0.02 96 1000.1
20180225082124 41 108 1.0 3.0 0.01 0.16 0.02 96 1000.7
20180225081113 41 138 2.0 3.0 0.00 0.15 0.01 96 1001.0
20180225080121 41 110 1.0 3.0 0.00 0.16 0.01 95 1000.8
20180225075113 40 101 1.0 3.0 0.00 0.16 0.01 95 1001.2
20180225074112 40 126 2.0 5.0 0.00 0.16 0.01 95 1001.5
20180225073113 40 111 3.0 6.0 0.00 0.16 0.01 95 1001.7
20180225072113 40 55 2.0 5.0 0.00 0.16 0.01 95 1002.4
20180225071112 40 193 3.0 10.0 0.00 0.16 0.01 95 1002.6
20180225070121 39 100 3.0 10.0 0.01 0.16 0.01 95 1002.4
20180225065113 39 110 5.0 10.0 0.01 0.16 0.01 95 1002.6
20180225064113 39 138 2.0 10.0 0.01 0.16 0.01 95 1003.1
20180225063112 39 82 5.0 13.0 0.01 0.17 0.01 95 1003.2
20180225062112 39 108 3.0 12.0 0.01 0.17 0.01 95 1003.6
20180225061112 39 100 4.0 12.0 0.01 0.17 0.01 94 1004.6
20180225060120 39 94 3.0 12.0 0.00 0.16 0.00 94 1005.3
20180225055113 39 100 2.0 17.0 0.00 0.16 0.00 94 1005.1
20180225054113 38 94 5.0 15.0 0.00 0.17 0.00 94 1004.8
20180225053113 38 113 7.0 15.0 0.01 0.17 0.00 94 1005.2
20180225052113 38 77 4.0 15.0 0.01 0.17 0.00 94 1006.2
20180225051112 38 70 6.0 17.0 0.01 0.17 0.00 93 1006.9
20180225050121 38 189 6.0 14.0 0.01 0.17 0.00 93 1007.4
20180225045112 38 125 5.0 15.0 0.01 0.17 0.17 93 1007.9
20180225044113 38 173 5.0 12.0 0.01 0.17 0.17 93 1008.0
20180225043113 38 96 3.0 16.0 0.00 0.16 0.16 92 1009.0
20180225042113 38 144 4.0 8.0 0.00 0.17 0.16 92 1008.7
20180225041112 38 81 3.0 12.0 0.00 0.17 0.16 91 1010.4
20180225040121 38 24 2.0 7.0 0.00 0.17 0.16 91 1011.1
20180225035113 38 69 3.0 14.0 0.00 0.17 0.16 91 1011.7
20180225034113 38 140 3.0 7.0 0.00 0.17 0.16 90 1012.1
20180225033113 38 93 2.0 7.0 0.00 0.18 0.16 90 1012.7
20180225032112 38 66 3.0 12.0 0.01 0.18 0.16 89 1012.8
20180225031113 39 93 3.0 8.0 0.01 0.18 0.16 89 1013.0
20180225030121 39 65 3.0 12.0 0.01 0.18 0.16 89 1013.1
20180225025113 39 93 2.0 10.0 0.01 0.18 0.16 88 1013.3
20180225024113 39 101 2.0 13.0 0.01 0.18 0.16 88 1013.4
20180225023113 39 155 3.0 12.0 0.01 0.18 0.16 88 1013.6
20180225022113 39 61 1.0 12.0 0.00 0.18 0.15 87 1013.9
20180225021113 39 97 5.0 12.0 0.00 0.18 0.15 87 1013.8
20180225020120 39 52 3.0 14.0 0.00 0.18 0.15 86 1014.0
20180225015114 39 58 3.0 9.0 0.00 0.18 0.15 85 1014.4
20180225014113 39 100 3.0 12.0 0.01 0.19 0.15 85 1014.6
20180225013113 39 69 3.0 12.0 0.01 0.19 0.15 84 1015.3
20180225012114 39 105 3.0 12.0 0.01 0.19 0.15 84 1015.9
20180225011113 39 109 2.0 12.0 0.01 0.19 0.15 83 1015.9
20180225010121 39 18 2.0 9.0 0.01 0.19 0.15 84 1016.1
20180225005112 39 69 3.0 9.0 0.01 0.19 0.15 84 1016.4
20180225004114 39 84 4.0 12.0 0.00 0.18 0.14 83 1016.6
20180225003113 40 87 5.0 10.0 0.00 0.19 0.14 83 1016.8
20180225002113 40 30 3.0 12.0 0.00 0.19 0.14 83 1017.1
20180225001113 40 99 3.0 13.0 0.00 0.19 0.14 83 1017.5
20180225000121 40 70 2.0 7.0 0.00 0.20 0.14 84 1017.6
20180224235113 40 45 1.0 7.0 0.01 0.20 0.14 84 1017.5
20180224234113 40 66 2.0 5.0 0.01 0.20 0.14 84 1017.5
20180224233113 40 53 2.0 3.0 0.01 0.20 0.14 83 1017.6